Airfield :
LOGIN :

Register | Disclaimer

   EN    FR    IT 

 










Legend :    VFR   Marginal VFR   IFR   Intensive IFR   Very Intensive IFR
Visi :
Ceiling :
>= 8 km
>= 3000ft
5 to 8 km
1000 to 3000 ft
1500m to 5 km
500 to 1000 ft
800 to 1500m
200 to 500 ft
< 800m
< 200 ft
Symbols :   Thunderstorms  Fog  Heavy snow  Heavy precipitations  Wind > 20 kt
SIGMETs :     Misc.  Thunderstorms  Icing  Turbulence  Mountain Waves  Volcanic Ashes






- Airport Elevation : 82 ft
- IATA code : ALG


DAAG - Alger Houari Boumedienne

CURRENT METAR :
  • 300430Z 23008KT 9999 FEW023 SCT080 12/07 Q1016

EXPIRED METARs :
  • 300400Z 24010KT 9999 FEW023 SCT080 12/07 Q1016
  • 300330Z 23008KT 9999 FEW023 SCT080 12/07 Q1017
  • 300230Z 22007KT 9999 FEW023 11/07 Q1017
  • 300200Z 21006KT 9999 FEW023 10/07 Q1017

TAF TAF DAAG
Valid from the 30 at 00:00 until the 01 at 00:00 UTC


292300Z 3000/3024 22008KT 9999 SCT023
PROB30
TEMPO 3000/3006 FEW020CB



MET'MAP, your aeronautical weather chart ! - Copyright ORBIFLY December 2007 - Disclaimer

ORBIFLY MET'MAP TEAM :

Programming & Development : Alexandra Zaïnal
Original concept : Baudouin d'Aumeries
Technical & hardware support : Manuel Goepfert
Assistance : Marc-Olivier Méhu




SOURCES & CREDITS :

   NOAA